Time;durP1;ratioP1;P1;durP2;ratioP2;P2;SDS_P1;SDS_P2;PMS_P1;PMS_P2;Temp;Humidity;BMP_temperature;BMP_pressure;BME280_temperature;BME280_humidity;BME280_pressure;Samples;Min_cycle;Max_cycle;Signal;HPM_P1;HPM_P2
2021/12/11 00:01:10;;;;;;;8.02;4.75;;;;;;;3.44;97.96;97448.16;5049717;28;20100;-66
2021/12/11 00:03:42;;;;;;;10.02;4.95;;;;;;;3.45;98.02;97449.88;5051871;28;20075;-66
2021/12/11 00:06:13;;;;;;;8.45;4.43;;;;;;;3.43;98.11;97462.06;5052158;28;20296;-66
2021/12/11 00:08:41;;;;;;;8.77;4.80;;;;;;;3.45;98.22;97455.06;5052514;28;20107;-66
2021/12/11 00:11:16;;;;;;;8.85;4.32;;;;;;;3.47;98.28;97474.13;5057161;28;20122;-66
2021/12/11 00:13:43;;;;;;;8.40;4.50;;;;;;;3.48;98.35;97475.84;5061298;28;20025;-66
2021/12/11 00:16:12;;;;;;;7.78;4.25;;;;;;;3.46;98.66;97482.84;5054642;28;20052;-66
2021/12/11 00:18:39;;;;;;;9.63;4.63;;;;;;;3.44;98.35;97481.97;5045198;28;20231;-66
2021/12/11 00:21:09;;;;;;;9.43;4.60;;;;;;;3.40;98.01;97488.09;5050086;28;20336;-66
2021/12/11 00:23:40;;;;;;;9.98;4.50;;;;;;;3.40;98.14;97498.50;5046744;28;20017;-66
2021/12/11 00:26:11;;;;;;;7.88;4.95;;;;;;;3.38;98.54;97505.44;5056755;28;20374;-66
2021/12/11 00:28:46;;;;;;;9.27;4.85;;;;;;;3.39;97.89;97501.09;5060054;28;20039;-66
2021/12/11 00:31:12;;;;;;;7.85;4.75;;;;;;;3.37;98.16;97513.25;5046575;28;20067;-66
2021/12/11 00:33:37;;;;;;;10.32;6.07;;;;;;;3.36;98.17;97514.97;5048807;28;20029;-66
2021/12/11 00:36:11;;;;;;;10.88;5.88;;;;;;;3.36;98.76;97521.94;5056492;28;20092;-66
2021/12/11 00:38:37;;;;;;;11.52;5.63;;;;;;;3.39;98.45;97522.75;5054126;28;20025;-66
2021/12/11 00:41:07;;;;;;;11.13;6.93;;;;;;;3.40;97.84;97534.91;5060889;28;20017;-66
2021/12/11 00:43:35;;;;;;;10.07;5.80;;;;;;;3.37;97.96;97536.66;5060772;28;20032;-66
2021/12/11 00:46:06;;;;;;;9.90;5.65;;;;;;;3.38;98.23;97541.84;5046714;28;20013;-66
2021/12/11 00:48:32;;;;;;;11.75;5.68;;;;;;;3.36;98.10;97548.78;5050672;28;20030;-66
2021/12/11 00:51:13;;;;;;;10.68;5.88;;;;;;;3.35;97.81;97562.66;5051997;28;20033;-66
2021/12/11 00:53:52;;;;;;;11.73;5.33;;;;;;;3.35;98.51;97562.66;5048327;28;20019;-66
2021/12/11 00:56:39;;;;;;;10.55;5.90;;;;;;;3.34;98.23;97576.56;5054800;28;20013;-66
2021/12/11 00:59:12;;;;;;;10.27;5.75;;;;;;;3.31;98.05;97576.56;5056078;28;20023;-66
2021/12/11 01:01:45;;;;;;;12.18;5.78;;;;;;;3.24;98.54;97582.69;5058560;28;20032;-66
2021/12/11 01:04:17;;;;;;;12.02;6.43;;;;;;;3.22;97.91;97600.03;5049712;28;20321;-66
2021/12/11 01:06:50;;;;;;;;;;;;;;;3.25;98.27;97602.63;5052798;28;20020;-66
2021/12/11 01:09:18;;;;;;;;;;;;;;;3.28;98.31;97602.59;5056531;28;20223;-66
2021/12/11 01:11:49;;;;;;;7.80;4.43;;;;;;;3.25;97.93;97613.00;5052248;28;19904;-66
2021/12/11 01:14:32;;;;;;;9.00;4.90;;;;;;;3.15;98.24;97610.47;5056031;28;20057;-66
2021/12/11 01:17:11;;;;;;;10.68;5.15;;;;;;;3.18;98.06;97624.34;5047153;28;20021;-66
2021/12/11 01:19:39;;;;;;;8.63;4.50;;;;;;;3.16;98.21;97620.88;5049607;28;20036;-66
2021/12/11 01:22:21;;;;;;;10.55;5.43;;;;;;;3.12;98.45;97629.56;5052896;28;20092;-66
2021/12/11 01:24:52;;;;;;;9.35;5.63;;;;;;;3.16;98.81;97633.88;5056776;28;20301;-66
2021/12/11 01:27:23;;;;;;;11.35;5.40;;;;;;;3.10;98.11;97649.50;5048907;28;20052;-66
2021/12/11 01:29:50;;;;;;;11.38;5.65;;;;;;;3.11;98.05;97661.66;5060338;28;20021;-66
2021/12/11 01:32:16;;;;;;;9.25;5.43;;;;;;;3.13;97.95;97656.44;5057708;28;20037;-66
2021/12/11 01:34:45;;;;;;;9.65;5.85;;;;;;;3.09;98.50;97668.59;5049109;28;20268;-66
2021/12/11 01:37:11;;;;;;;11.63;6.53;;;;;;;3.08;98.32;97679.88;5054030;28;20025;-66
2021/12/11 01:39:39;;;;;;;12.02;6.43;;;;;;;3.09;98.60;97684.19;5055247;28;20021;-66
2021/12/11 01:42:13;;;;;;;9.85;5.78;;;;;;;3.10;98.34;97696.28;5057076;28;20337;-66
2021/12/11 01:44:41;;;;;;;11.38;5.32;;;;;;;3.11;98.27;97700.66;5045874;28;20024;-66
2021/12/11 01:47:13;;;;;;;11.85;6.45;;;;;;;3.08;98.16;97702.38;5062642;28;20058;-66
2021/12/11 01:49:41;;;;;;;11.85;6.53;;;;;;;3.09;98.58;97707.56;5062832;28;20025;-66
2021/12/11 01:52:18;;;;;;;10.68;5.97;;;;;;;3.08;98.69;97713.66;5053370;28;20036;-66
2021/12/11 01:54:47;;;;;;;9.20;5.78;;;;;;;3.09;98.61;97715.38;5052603;28;20041;-66
2021/12/11 01:57:25;;;;;;;11.57;6.53;;;;;;;3.11;98.92;97726.63;5045662;28;20017;-66
2021/12/11 01:59:56;;;;;;;11.38;6.00;;;;;;;3.09;98.31;97736.16;5044882;28;20064;-66
2021/12/11 02:02:39;;;;;;;10.80;5.65;;;;;;;3.11;98.59;97737.03;5051915;28;20021;-66
2021/12/11 02:05:05;;;;;;;;;;;;;;;3.17;98.63;97734.41;5057090;28;20084;-66
2021/12/11 02:07:36;;;;;;;9.15;5.43;;;;;;;3.16;98.93;97748.25;5050719;28;20100;-66
2021/12/11 02:10:10;;;;;;;11.25;6.03;;;;;;;3.19;98.69;97753.44;5058214;28;20083;-66
2021/12/11 02:12:39;;;;;;;11.60;7.10;;;;;;;3.19;98.38;97753.44;5055975;28;20028;-66
2021/12/11 02:15:19;;;;;;;9.43;6.25;;;;;;;3.23;98.16;97769.91;5057336;28;20026;-66
2021/12/11 02:17:57;;;;;;;10.18;6.00;;;;;;;3.19;97.87;97771.66;5063958;28;20041;-66
2021/12/11 02:20:32;;;;;;;11.95;6.47;;;;;;;3.23;98.19;97786.34;5059709;28;20092;-66
2021/12/11 02:22:59;;;;;;;10.02;6.15;;;;;;;3.22;98.34;97789.84;5048982;28;20232;-66
2021/12/11 02:25:29;;;;;;;10.43;6.40;;;;;;;3.28;97.98;97789.81;5055693;28;20093;-66
2021/12/11 02:28:02;;;;;;;12.30;6.55;;;;;;;3.26;97.76;97794.13;5056559;28;20331;-66
2021/12/11 02:30:31;;;;;;;9.68;5.78;;;;;;;3.23;97.86;97798.50;5056485;28;20017;-66
2021/12/11 02:33:06;;;;;;;9.23;5.70;;;;;;;3.23;98.12;97801.13;5053243;28;20084;-66
2021/12/11 02:35:43;;;;;;;11.63;6.32;;;;;;;3.21;97.86;97808.91;5052784;28;20029;-66
2021/12/11 02:38:27;;;;;;;10.25;6.05;;;;;;;3.20;98.04;97811.53;5055657;28;20094;-66
2021/12/11 02:41:03;;;;;;;10.52;6.72;;;;;;;3.23;98.00;97811.50;5058194;28;20048;-66
2021/12/11 02:43:47;;;;;;;8.50;5.45;;;;;;;3.22;97.91;97826.25;5054024;28;20078;-66
2021/12/11 02:46:38;;;;;;;10.18;6.20;;;;;;;3.23;98.30;97827.13;5056349;28;20205;-66
2021/12/11 02:49:15;;;;;;;9.25;5.80;;;;;;;3.23;97.67;97830.56;5056251;28;20043;-66
2021/12/11 02:51:55;;;;;;;13.57;6.80;;;;;;;3.21;97.98;97840.13;5051450;28;20025;-66
2021/12/11 02:54:28;;;;;;;10.23;6.28;;;;;;;3.22;98.12;97847.03;5062761;28;20024;-66
2021/12/11 02:57:09;;;;;;;10.45;6.45;;;;;;;3.24;98.03;97849.63;5049160;28;20221;-66
2021/12/11 02:59:41;;;;;;;10.70;6.07;;;;;;;3.22;97.88;97856.56;5051353;28;20317;-66
2021/12/11 03:02:14;;;;;;;11.63;7.03;;;;;;;3.22;97.92;97857.44;5052216;28;20016;-66
2021/12/11 03:04:48;;;;;;;11.85;6.30;;;;;;;3.16;98.18;97857.44;5055730;28;20021;-66
2021/12/11 03:07:16;;;;;;;11.52;6.72;;;;;;;3.18;98.12;97866.13;5063510;28;20021;-66
2021/12/11 03:09:48;;;;;;;12.05;6.60;;;;;;;3.18;97.74;97866.13;5051626;28;20092;-66
2021/12/11 03:12:15;;;;;;;;;;;;;;;3.17;98.09;97869.59;5055839;28;20013;-66
2021/12/11 03:14:42;;;;;;;10.13;6.40;;;;;;;3.15;97.89;97873.94;5054111;28;20083;-66
2021/12/11 03:17:08;;;;;;;10.88;6.75;;;;;;;3.08;98.49;97882.63;5050120;28;20021;-66
2021/12/11 03:19:36;;;;;;;12.43;7.30;;;;;;;3.11;98.52;97886.94;5062378;28;20040;-66
2021/12/11 03:22:05;;;;;;;11.55;7.63;;;;;;;3.11;98.73;97894.72;5051349;28;20024;-66
2021/12/11 03:24:33;;;;;;;12.63;7.53;;;;;;;3.10;98.42;97898.22;5061408;28;20013;-66
2021/12/11 03:27:00;;;;;;;12.90;7.75;;;;;;;3.14;98.68;97900.81;5060768;28;20059;-66
2021/12/11 03:29:26;;;;;;;13.75;7.82;;;;;;;3.12;98.35;97907.72;5051603;28;20017;-66
2021/12/11 03:31:52;;;;;;;13.50;7.97;;;;;;;3.16;98.39;97904.25;5060672;28;20021;-66
2021/12/11 03:34:21;;;;;;;13.35;7.93;;;;;;;3.24;98.29;97922.44;5051576;28;20021;-66
2021/12/11 03:36:47;;;;;;;15.00;8.38;;;;;;;3.19;98.03;97929.38;5049180;28;20032;-66
2021/12/11 03:39:20;;;;;;;16.13;8.50;;;;;;;3.19;98.64;97938.03;5061855;28;20017;-66
2021/12/11 03:41:47;;;;;;;16.45;8.50;;;;;;;3.18;98.54;97933.72;5048801;28;20026;-66
2021/12/11 03:44:14;;;;;;;12.98;7.82;;;;;;;3.22;98.59;97945.84;5053760;28;20028;-66
2021/12/11 03:46:40;;;;;;;13.65;7.95;;;;;;;3.22;98.57;97953.63;5049460;28;20100;-66
2021/12/11 03:49:09;;;;;;;14.35;9.02;;;;;;;3.24;98.92;97959.72;5054538;28;20349;-66
2021/12/11 03:51:41;;;;;;;14.85;8.90;;;;;;;3.30;98.47;97964.91;5054962;28;20030;-66
2021/12/11 03:54:08;;;;;;;;;;;;;;;3.34;98.35;97965.75;5051249;28;20021;-66
2021/12/11 03:56:35;;;;;;;16.50;8.52;;;;;;;3.29;97.78;97975.31;5057329;28;19924;-66
2021/12/11 03:59:08;;;;;;;13.88;8.07;;;;;;;3.30;98.11;97985.72;5061948;28;20012;-66
2021/12/11 04:01:37;;;;;;;13.52;8.73;;;;;;;3.27;98.36;97980.50;5047530;28;20052;-66
2021/12/11 04:04:10;;;;;;;16.13;9.43;;;;;;;3.29;97.74;97989.16;5056952;28;20078;-66
2021/12/11 04:06:36;;;;;;;14.25;9.38;;;;;;;3.28;98.52;97994.38;5060433;28;20017;-66
2021/12/11 04:09:09;;;;;;;14.40;9.38;;;;;;;3.32;98.01;97994.34;5049010;28;20040;-66
2021/12/11 04:11:36;;;;;;;18.02;10.95;;;;;;;3.34;98.29;98008.25;5047343;28;20030;-66
2021/12/11 04:14:16;;;;;;;15.38;8.90;;;;;;;3.30;98.53;98006.53;5060134;28;20325;-66
2021/12/11 04:16:42;;;;;;;16.67;9.68;;;;;;;3.31;98.09;98013.44;5056328;28;20025;-66
2021/12/11 04:19:08;;;;;;;16.95;10.35;;;;;;;3.34;98.47;98018.66;5054290;28;20398;-66
2021/12/11 04:21:35;;;;;;;16.20;10.55;;;;;;;3.29;98.24;98020.38;5059522;28;20221;-66
2021/12/11 04:24:05;;;;;;;18.23;9.38;;;;;;;3.33;98.54;98026.44;5054255;28;20367;-66
2021/12/11 04:26:31;;;;;;;13.65;9.25;;;;;;;3.32;98.27;98040.31;5058001;28;20253;-66
2021/12/11 04:28:56;;;;;;;14.25;9.15;;;;;;;3.37;98.53;98030.78;5056059;28;20025;-66
2021/12/11 04:31:26;;;;;;;14.88;9.43;;;;;;;3.35;97.53;98041.19;5046322;28;20292;-66
2021/12/11 04:33:56;;;;;;;16.17;9.63;;;;;;;3.37;98.03;98049.84;5049715;28;20084;-66
2021/12/11 04:36:28;;;;;;;15.07;10.32;;;;;;;3.36;97.97;98052.44;5060339;28;20044;-66
2021/12/11 04:38:55;;;;;;;18.27;10.00;;;;;;;3.34;98.06;98055.06;5053969;28;20217;-66
2021/12/11 04:41:29;;;;;;;15.98;9.68;;;;;;;3.39;98.31;98055.91;5059810;28;20020;-66
2021/12/11 04:43:57;;;;;;;15.57;10.15;;;;;;;3.37;98.33;98062.84;5045591;28;20348;-66
2021/12/11 04:46:23;;;;;;;16.25;10.77;;;;;;;3.34;98.52;98060.25;5055458;28;20059;-66
2021/12/11 04:49:02;;;;;;;18.23;11.45;;;;;;;3.36;98.45;98068.06;5063349;28;20092;-66
2021/12/11 04:51:41;;;;;;;19.20;11.80;;;;;;;3.36;98.66;98074.09;5062042;28;20025;-66
2021/12/11 05:10:06;;;;;;;15.68;10.20;;;;;;;3.40;97.71;98101.88;5060500;28;20075;-66
2021/12/11 05:12:35;;;;;;;16.65;10.90;;;;;;;3.39;97.90;98105.31;5045931;28;20045;-66
2021/12/11 05:15:07;;;;;;;23.42;10.75;;;;;;;3.41;97.80;98114.00;5056021;28;20096;-66
2021/12/11 05:17:33;;;;;;;19.15;11.40;;;;;;;3.37;98.14;98116.59;5052455;28;20064;-66
2021/12/11 05:19:59;;;;;;;20.25;12.23;;;;;;;3.29;98.68;98124.38;5056772;28;20067;-66
2021/12/11 05:22:24;;;;;;;19.90;11.57;;;;;;;3.39;98.23;98136.53;5060365;28;20025;-66
2021/12/11 05:24:54;;;;;;;16.80;11.70;;;;;;;3.42;97.96;98123.53;5046800;28;20024;-66
2021/12/11 05:27:20;;;;;;;19.30;12.07;;;;;;;3.43;98.09;98127.88;5045881;28;20021;-66
2021/12/11 05:29:45;;;;;;;21.65;12.95;;;;;;;3.33;98.07;98140.88;5045906;28;20033;-66
2021/12/11 05:32:14;;;;;;;18.17;12.13;;;;;;;3.32;97.95;98155.59;5045897;28;20028;-66
2021/12/11 05:34:41;;;;;;;19.02;11.93;;;;;;;3.36;97.62;98162.53;5054308;28;20042;-66
2021/12/11 05:37:06;;;;;;;19.25;11.65;;;;;;;3.39;97.71;98166.91;5047565;28;20055;-66
2021/12/11 05:39:32;;;;;;;20.58;12.38;;;;;;;3.35;98.18;98171.22;5054578;28;20292;-66
2021/12/11 05:41:58;;;;;;;22.23;13.32;;;;;;;3.36;97.83;98178.13;5052206;28;20032;-66
2021/12/11 05:44:24;;;;;;;19.73;12.27;;;;;;;3.33;97.92;98175.56;5058329;28;20037;-66
2021/12/11 05:46:52;;;;;;;19.85;11.93;;;;;;;3.32;98.16;98181.59;5057819;28;20018;-66
2021/12/11 05:49:17;;;;;;;20.60;12.60;;;;;;;3.33;98.02;98178.16;5057538;28;20193;-66
2021/12/11 05:51:46;;;;;;;18.98;12.65;;;;;;;3.34;97.88;98182.50;5059190;28;20024;-66
2021/12/11 05:54:24;;;;;;;23.90;13.10;;;;;;;3.35;98.17;98189.41;5050555;28;20095;-66
2021/12/11 05:56:55;;;;;;;19.35;12.27;;;;;;;3.30;98.07;98188.56;5063842;28;20028;-66
2021/12/11 05:59:22;;;;;;;20.33;12.48;;;;;;;3.31;98.18;98192.00;5058432;28;20052;-66
2021/12/11 06:01:56;;;;;;;18.67;11.93;;;;;;;3.26;97.68;98196.34;5050526;28;20221;-66
2021/12/11 06:04:26;;;;;;;18.75;12.23;;;;;;;3.21;98.17;98204.13;5060440;28;20033;-66
2021/12/11 06:06:53;;;;;;;19.35;12.40;;;;;;;3.24;97.56;98206.75;5049518;28;20055;-66
2021/12/11 06:09:21;;;;;;;22.70;13.20;;;;;;;3.15;97.99;98219.72;5063506;28;20021;-66
2021/12/11 06:11:49;;;;;;;19.30;12.80;;;;;;;3.17;98.19;98222.31;5058540;28;20024;-66
2021/12/11 06:14:17;;;;;;;21.30;13.70;;;;;;;3.18;97.77;98229.25;5058863;28;20272;-66
2021/12/11 06:16:44;;;;;;;20.38;13.27;;;;;;;3.14;98.40;98232.72;5046587;28;20022;-66
2021/12/11 06:19:10;;;;;;;19.90;12.98;;;;;;;3.13;98.47;98239.63;5052508;28;20033;-66
2021/12/11 06:21:36;;;;;;;23.73;13.55;;;;;;;3.14;98.65;98243.13;5058795;28;20040;-66
2021/12/11 06:24:02;;;;;;;24.27;14.40;;;;;;;3.18;98.31;98250.06;5055322;28;20036;-66
2021/12/11 06:26:28;;;;;;;22.42;14.02;;;;;;;3.22;98.17;98257.88;5048834;28;20017;-66
2021/12/11 06:28:54;;;;;;;25.05;15.45;;;;;;;3.22;98.33;98263.06;5049165;28;20058;-66
2021/12/11 06:31:19;;;;;;;23.63;14.55;;;;;;;3.25;98.54;98278.69;5064568;28;20045;-66
2021/12/11 06:33:48;;;;;;;21.33;13.88;;;;;;;3.23;97.97;98277.81;5059009;28;20264;-66
2021/12/11 06:36:15;;;;;;;21.83;14.07;;;;;;;3.24;98.37;98279.56;5055566;28;20351;-66
2021/12/11 06:38:44;;;;;;;21.08;13.85;;;;;;;3.19;98.78;98278.66;5060744;28;20029;-66
2021/12/11 06:41:14;;;;;;;22.70;13.57;;;;;;;3.15;98.71;98292.53;5048583;28;20030;-66
2021/12/11 06:43:40;;;;;;;23.17;14.00;;;;;;;3.20;98.98;98305.53;5056959;28;20221;-66
2021/12/11 06:46:07;;;;;;;24.08;14.48;;;;;;;3.23;99.09;98311.59;5062880;28;20023;-66
2021/12/11 06:48:33;;;;;;;25.25;13.88;;;;;;;3.19;98.64;98315.06;5061456;28;20037;-66
2021/12/11 06:51:01;;;;;;;22.00;12.15;;;;;;;3.17;98.35;98324.59;5059980;28;20020;-66
2021/12/11 06:53:33;;;;;;;21.67;12.70;;;;;;;3.14;98.08;98326.31;5057583;28;20025;-66
2021/12/11 06:55:59;;;;;;;21.95;13.98;;;;;;;3.08;97.85;98331.47;5051900;28;20081;-66
2021/12/11 06:58:25;;;;;;;19.75;12.43;;;;;;;3.07;98.11;98333.19;5052334;28;20082;-66
2021/12/11 07:00:51;;;;;;;25.05;14.23;;;;;;;3.04;98.20;98343.59;5064258;28;20329;-66
2021/12/11 07:03:17;;;;;;;23.67;13.57;;;;;;;3.05;98.26;98350.53;5065774;28;20032;-66
2021/12/11 07:05:43;;;;;;;21.63;12.93;;;;;;;3.08;98.40;98353.16;5065771;28;20021;-66
2021/12/11 07:08:12;;;;;;;28.90;13.27;;;;;;;3.04;98.31;98361.78;5065959;28;20032;-66
2021/12/11 07:10:39;;;;;;;21.25;12.20;;;;;;;3.09;98.20;98360.09;5057588;28;20063;-66
2021/12/11 07:13:05;;;;;;;20.67;12.75;;;;;;;3.12;97.81;98370.50;5052854;28;20023;-66
2021/12/11 07:15:30;;;;;;;22.45;12.60;;;;;;;3.17;98.25;98378.34;5062043;28;20321;-66
2021/12/11 07:17:57;;;;;;;24.85;14.00;;;;;;;3.17;97.92;98384.41;5053384;28;20045;-66
2021/12/11 07:20:23;;;;;;;19.15;11.82;;;;;;;3.17;97.82;98391.34;5060694;28;20324;-66
2021/12/11 07:22:48;;;;;;;20.48;12.73;;;;;;;3.16;97.69;98406.06;5048275;28;20036;-66
2021/12/11 07:25:26;;;;;;;23.17;13.75;;;;;;;3.14;97.64;98410.41;5062225;28;20021;-66
2021/12/11 07:27:53;;;;;;;24.75;13.90;;;;;;;3.14;97.52;98413.00;5062213;28;20017;-66
2021/12/11 07:30:19;;;;;;;24.10;13.95;;;;;;;3.15;97.45;98427.72;5062155;28;20048;-66
2021/12/11 07:32:45;;;;;;;26.52;15.00;;;;;;;3.04;97.32;98424.16;5052975;28;20313;-66
2021/12/11 07:35:11;;;;;;;26.80;15.40;;;;;;;3.02;97.17;98431.09;5047502;28;20025;-66
2021/12/11 07:37:37;;;;;;;22.83;14.10;;;;;;;2.92;97.36;98426.72;5051275;28;20024;-66
2021/12/11 07:40:08;;;;;;;24.95;15.35;;;;;;;2.82;97.29;98443.09;5053350;28;20245;-66
2021/12/11 07:42:35;;;;;;;26.65;14.85;;;;;;;2.70;97.04;98443.00;5050340;28;20055;-66
2021/12/11 07:45:00;;;;;;;24.75;12.90;;;;;;;2.58;97.02;98440.28;5054989;28;20082;-66
2021/12/11 07:47:26;;;;;;;24.55;13.95;;;;;;;2.46;97.59;98453.16;5061729;28;20024;-66
2021/12/11 07:49:51;;;;;;;23.73;14.07;;;;;;;2.36;98.26;98456.53;5064295;28;20092;-66
2021/12/11 07:52:17;;;;;;;26.33;14.55;;;;;;;2.24;98.33;98462.47;5064389;28;20043;-66
2021/12/11 07:54:42;;;;;;;22.35;13.23;;;;;;;2.21;98.32;98466.75;5057614;28;20025;-66
2021/12/11 07:57:08;;;;;;;28.25;14.30;;;;;;;2.10;98.05;98460.59;5053451;28;20021;-66
2021/12/11 07:59:33;;;;;;;26.88;14.35;;;;;;;2.04;98.80;98469.19;5051777;28;20325;-66
2021/12/11 08:01:59;;;;;;;26.85;15.02;;;;;;;2.00;98.88;98479.50;5053010;28;20035;-66
2021/12/11 08:04:24;;;;;;;25.40;14.65;;;;;;;1.92;98.65;98478.53;5053039;28;20052;-66
2021/12/11 08:06:51;;;;;;;25.25;13.85;;;;;;;1.94;99.18;98495.88;5056843;28;20415;-66
2021/12/11 08:09:20;;;;;;;27.33;15.05;;;;;;;1.94;99.06;98495.00;5061216;28;20074;-66
2021/12/11 08:11:47;;;;;;;27.92;15.88;;;;;;;1.89;99.14;98499.25;5048938;28;20025;-66
2021/12/11 08:14:13;;;;;;;24.63;14.95;;;;;;;1.87;99.67;98501.81;5059599;28;20025;-66
2021/12/11 08:16:48;;;;;;;25.27;14.77;;;;;;;1.91;99.79;98502.75;5064144;28;20053;-66
2021/12/11 08:19:17;;;;;;;27.52;15.77;;;;;;;1.99;99.83;98506.28;5064253;28;20112;-66
2021/12/11 08:21:44;;;;;;;25.92;14.18;;;;;;;2.39;99.27;98521.47;5062677;28;20016;-67
2021/12/11 08:24:10;;;;;;;24.00;13.85;;;;;;;3.08;97.69;98522.16;5062590;28;20313;-66
2021/12/11 08:26:37;;;;;;;23.58;13.18;;;;;;;3.77;94.77;98534.78;5064245;28;20055;-67
2021/12/11 08:29:04;;;;;;;19.90;11.27;;;;;;;4.38;91.08;98537.66;5072197;28;20066;-66
2021/12/11 08:31:30;;;;;;;19.45;11.45;;;;;;;4.67;88.22;98544.66;5064483;28;20020;-66
2021/12/11 08:33:56;;;;;;;19.80;10.88;;;;;;;5.06;86.14;98552.56;5043275;28;20028;-66
2021/12/11 08:36:22;;;;;;;19.05;10.93;;;;;;;5.41;84.80;98553.47;5044078;28;20120;-66
2021/12/11 08:38:48;;;;;;;19.00;11.43;;;;;;;5.73;82.72;98567.34;5044125;28;20028;-66
2021/12/11 08:41:19;;;;;;;17.55;9.98;;;;;;;6.25;82.26;98574.22;5044362;28;20022;-65
2021/12/11 08:43:52;;;;;;;15.50;9.93;;;;;;;6.50;81.10;98575.88;5044099;28;20022;-66
2021/12/11 08:46:27;;;;;;;18.83;10.80;;;;;;;6.64;80.45;98592.34;5044041;28;20333;-66
2021/12/11 08:48:54;;;;;;;15.40;10.10;;;;;;;6.92;79.58;98596.56;5044566;28;20021;-66
2021/12/11 08:51:24;;;;;;;18.05;11.10;;;;;;;7.29;77.73;98600.69;5043936;28;20028;-66
2021/12/11 08:53:50;;;;;;;18.55;10.80;;;;;;;7.41;77.06;98604.97;5050777;28;20243;-66
2021/12/11 08:56:18;;;;;;;17.52;11.05;;;;;;;7.52;76.15;98606.63;5063754;28;20059;-66
2021/12/11 08:58:47;;;;;;;17.95;10.85;;;;;;;7.63;76.42;98612.63;5063830;28;20089;-66
2021/12/11 09:01:24;;;;;;;17.52;10.88;;;;;;;7.78;74.99;98609.91;5063788;28;20036;-66
2021/12/11 09:04:05;;;;;;;16.52;10.18;;;;;;;7.77;75.66;98616.03;5063751;28;20335;-66
2021/12/11 09:06:50;;;;;;;16.90;10.67;;;;;;;7.86;74.55;98623.81;5061219;28;20025;-66
2021/12/11 09:09:30;;;;;;;20.85;12.18;;;;;;;7.86;75.33;98636.91;5043787;28;20254;-66
2021/12/11 09:12:18;;;;;;;18.25;11.88;;;;;;;8.04;73.69;98628.88;5043790;28;20221;-66
2021/12/11 09:14:59;;;;;;;18.48;12.02;;;;;;;7.83;74.42;98636.94;5043694;28;20085;-66
2021/12/11 09:17:33;;;;;;;21.95;10.98;;;;;;;7.69;74.85;98636.16;5043641;28;20041;-66
2021/12/11 09:20:07;;;;;;;16.88;11.05;;;;;;;7.97;73.57;98647.28;5043850;28;20025;-66
2021/12/11 09:22:38;;;;;;;17.83;11.80;;;;;;;7.87;74.47;98646.50;5055020;28;20331;-66
2021/12/11 09:25:19;;;;;;;18.13;10.95;;;;;;;7.80;73.85;98644.81;5067964;28;20016;-66
2021/12/11 09:28:26;;;;;;;22.25;12.48;;;;;;;7.78;74.52;98650.97;5067930;28;20021;-66
2021/12/11 09:31:04;;;;;;;17.85;10.73;;;;;;;7.26;75.83;98660.94;5067060;28;20032;-66
2021/12/11 09:33:37;;;;;;;17.58;11.48;;;;;;;6.52;79.15;98668.25;5067579;28;20025;-66
2021/12/11 09:36:11;;;;;;;22.55;13.25;;;;;;;6.14;80.65;98662.22;5067513;28;20025;-66
2021/12/11 09:38:49;;;;;;;19.92;12.38;;;;;;;5.79;82.56;98677.88;5065962;28;20090;-66
2021/12/11 09:41:17;;;;;;;22.95;13.20;;;;;;;5.66;83.61;98673.53;5066403;28;20037;-66
2021/12/11 09:44:05;;;;;;;25.02;14.27;;;;;;;5.52;84.92;98677.00;5050160;28;20063;-66
2021/12/11 09:46:44;;;;;;;20.63;12.70;;;;;;;5.21;85.48;98685.63;5046734;28;20030;-66
2021/12/11 09:49:14;;;;;;;19.50;12.05;;;;;;;5.09;85.55;98693.44;5047531;28;20045;-66
2021/12/11 09:51:44;;;;;;;19.05;11.25;;;;;;;5.06;85.60;98701.25;5048032;28;20035;-66
2021/12/11 09:54:15;;;;;;;17.15;10.60;;;;;;;5.01;86.25;98697.75;5046546;28;20029;-66
2021/12/11 09:56:49;;;;;;;19.07;11.07;;;;;;;4.93;87.32;98692.50;5046472;28;20021;-66
2021/12/11 09:59:19;;;;;;;21.55;12.25;;;;;;;4.88;88.41;98701.19;5046180;28;20041;-66
2021/12/11 10:01:51;;;;;;;20.95;13.23;;;;;;;4.82;89.89;98706.38;5046019;28;20210;-66
2021/12/11 10:04:30;;;;;;;19.95;11.63;;;;;;;4.81;88.50;98715.06;5045669;28;20045;-66
2021/12/11 10:09:26;;;;;;;23.45;12.38;;;;;;;4.88;88.53;98714.22;5053380;28;20017;-66
2021/12/11 10:11:58;;;;;;;19.73;12.13;;;;;;;4.89;88.34;98724.66;5062927;28;20035;-66
2021/12/11 10:14:29;;;;;;;22.67;13.15;;;;;;;4.88;88.75;98727.25;5067834;28;20139;-66
2021/12/11 10:16:59;;;;;;;25.20;14.63;;;;;;;4.92;88.95;98727.28;5065086;28;20028;-66
2021/12/11 10:19:29;;;;;;;25.30;13.88;;;;;;;4.94;88.49;98732.50;5045598;28;20033;-66
2021/12/11 10:22:04;;;;;;;23.25;13.35;;;;;;;4.87;89.12;98731.59;5055245;28;20328;-66
2021/12/11 10:24:32;;;;;;;23.58;13.45;;;;;;;4.93;89.09;98741.19;5065590;28;20019;-66
2021/12/11 10:26:59;;;;;;;20.92;12.73;;;;;;;4.89;89.17;98739.41;5061755;28;20036;-66
2021/12/11 10:29:26;;;;;;;27.65;14.38;;;;;;;4.88;89.54;98742.91;5065809;28;20359;-66
2021/12/11 10:31:59;;;;;;;24.45;14.30;;;;;;;4.83;89.43;98747.22;5064205;28;20029;-66
2021/12/11 10:34:27;;;;;;;25.05;14.23;;;;;;;4.83;89.28;98742.88;5065153;28;20032;-66
2021/12/11 10:37:15;;;;;;;26.23;13.93;;;;;;;4.79;89.80;98748.06;5066103;28;20030;-66
2021/12/11 10:39:46;;;;;;;23.77;12.32;;;;;;;4.81;89.84;98759.38;5065646;28;20028;-66
2021/12/11 10:42:12;;;;;;;26.23;14.20;;;;;;;4.81;90.75;98751.56;5057402;28;20328;-66
2021/12/11 10:44:44;;;;;;;23.67;14.25;;;;;;;4.86;90.66;98755.06;5062863;28;20017;-66
2021/12/11 10:47:18;;;;;;;24.58;14.48;;;;;;;4.91;91.19;98758.56;5062567;28;20044;-67
2021/12/11 10:49:44;;;;;;;25.63;13.93;;;;;;;4.92;90.26;98755.97;5065206;28;20091;-66
2021/12/11 10:52:26;;;;;;;23.35;13.25;;;;;;;5.05;90.57;98762.97;5069054;28;20068;-66
2021/12/11 10:54:54;;;;;;;25.65;14.48;;;;;;;5.07;90.99;98763.00;5066095;28;20025;-66
2021/12/11 10:57:21;;;;;;;27.33;14.82;;;;;;;5.04;91.44;98765.59;5076306;28;20032;-66
2021/12/11 10:59:50;;;;;;;22.58;12.90;;;;;;;5.10;90.36;98757.78;5062849;28;20025;-66
2021/12/11 11:02:28;;;;;;;24.23;13.80;;;;;;;5.06;89.95;98748.22;5064252;28;20040;-65
2021/12/11 11:04:58;;;;;;;23.05;14.38;;;;;;;5.11;90.26;98762.13;5064659;28;20033;-66
2021/12/11 11:07:26;;;;;;;24.77;14.15;;;;;;;5.17;90.13;98763.03;5064897;28;20059;-66
2021/12/11 11:09:54;;;;;;;23.75;14.10;;;;;;;5.23;90.53;98785.66;5064144;28;20287;-66
2021/12/11 11:12:22;;;;;;;22.40;13.13;;;;;;;5.33;90.02;98811.81;5064099;28;20332;-66
2021/12/11 11:14:49;;;;;;;22.90;14.45;;;;;;;5.39;89.65;98790.97;5063893;28;20031;-66
2021/12/11 11:17:19;;;;;;;26.45;15.90;;;;;;;5.40;89.75;98779.63;5064040;28;20021;-66
2021/12/11 11:19:46;;;;;;;24.50;14.25;;;;;;;5.47;89.25;98770.09;5064606;28;20025;-66
2021/12/11 11:22:18;;;;;;;24.70;14.40;;;;;;;5.53;89.75;98784.03;5063970;28;20028;-66
2021/12/11 11:24:48;;;;;;;26.38;14.50;;;;;;;5.48;89.38;98780.56;5064066;28;20040;-66
2021/12/11 11:27:14;;;;;;;27.33;16.23;;;;;;;5.61;89.07;98786.66;5063467;28;20255;-66
2021/12/11 11:29:42;;;;;;;23.95;14.48;;;;;;;5.60;90.29;98784.94;5062816;28;20020;-66
2021/12/11 11:32:13;;;;;;;26.98;15.98;;;;;;;5.61;89.95;98777.09;5063919;28;20251;-66
2021/12/11 11:34:40;;;;;;;27.52;16.23;;;;;;;5.70;89.64;98795.38;5063639;28;20043;-66
2021/12/11 11:37:09;;;;;;;25.77;15.85;;;;;;;5.72;89.16;98795.38;5063293;28;20040;-66
2021/12/11 11:39:35;;;;;;;30.02;16.95;;;;;;;5.52;90.31;98797.97;5063495;28;20027;-66
2021/12/11 11:42:05;;;;;;;26.70;15.25;;;;;;;5.52;89.98;98802.28;5063625;28;20044;-66
2021/12/11 11:44:31;;;;;;;27.95;15.98;;;;;;;5.47;90.20;98799.66;5062903;28;20020;-66
2021/12/11 11:47:01;;;;;;;25.65;14.60;;;;;;;5.44;89.79;98804.88;5063347;28;20039;-66
2021/12/11 11:49:27;;;;;;;25.52;14.18;;;;;;;5.39;90.11;98816.16;5063205;28;20048;-66
2021/12/11 11:51:59;;;;;;;26.25;14.60;;;;;;;5.43;89.97;98812.69;5063329;28;20039;-66
2021/12/11 11:54:28;;;;;;;30.75;16.55;;;;;;;5.45;90.22;98826.63;5063318;28;20317;-66
2021/12/11 11:57:05;;;;;;;29.85;15.95;;;;;;;5.45;89.78;98822.31;5062917;28;20025;-66
2021/12/11 11:59:31;;;;;;;31.23;15.80;;;;;;;5.33;90.04;98826.59;5063358;28;20255;-66
2021/12/11 12:02:03;;;;;;;31.80;16.80;;;;;;;5.20;90.03;98825.66;5062113;28;20021;-66
2021/12/11 12:04:30;;;;;;;29.40;15.95;;;;;;;5.27;90.58;98837.00;5063272;28;20029;-66